EZY9001 EGCC-EGKK
Flight info
| Callsign | EZY9001 |
|---|---|
| Flight time | N/A |
| Altitude | 19000 |
| Route | LISTO2S LISTO L612 HON N859 KIDLI KIDLI1G |
| Aircraft | A319/M-SDE3FGHIRWY/LB1 |
Departure
| Time | 2026-05-06 08:00 |
|---|---|
| Airport | Manchester Airport (EGCC) |
Arrival
| Time | N/A |
|---|---|
| Airport | London Gatwick Airport (EGKK) |
| Time | Latitude | Longitude | Altitude | Speed | Heading |
|---|---|---|---|---|---|
| 2026-05-06 07:52 | 53.35842 | -2.27410 | 255 ft | 0 kts | 285° |
| 2026-05-06 07:54 | 53.35841 | -2.27408 | 255 ft | 2 kts | 285° |
| 2026-05-06 07:55 | 53.35835 | -2.27368 | 255 ft | 4 kts | 285° |
| 2026-05-06 07:55 | 53.35830 | -2.27334 | 255 ft | 4 kts | 249° |
| 2026-05-06 07:55 | 53.35845 | -2.27316 | 255 ft | 4 kts | 180° |
| 2026-05-06 07:55 | 53.35847 | -2.27316 | 255 ft | 0 kts | 180° |
| 2026-05-06 07:57 | 53.35846 | -2.27316 | 255 ft | 2 kts | 180° |
| 2026-05-06 07:57 | 53.35781 | -2.27347 | 255 ft | 19 kts | 219° |
| 2026-05-06 07:58 | 53.35683 | -2.27537 | 249 ft | 27 kts | 231° |
| 2026-05-06 07:58 | 53.35521 | -2.27813 | 238 ft | 38 kts | 224° |
| 2026-05-06 07:58 | 53.35332 | -2.28119 | 238 ft | 39 kts | 223° |
| 2026-05-06 07:58 | 53.35146 | -2.28480 | 227 ft | 41 kts | 231° |
| 2026-05-06 07:59 | 53.34991 | -2.28745 | 227 ft | 24 kts | 187° |
| 2026-05-06 07:59 | 53.34906 | -2.28658 | 228 ft | 11 kts | 140° |
| 2026-05-06 07:59 | 53.34877 | -2.28525 | 230 ft | 17 kts | 63° |
| 2026-05-06 07:59 | 53.34970 | -2.28339 | 232 ft | 35 kts | 49° |
| 2026-05-06 08:00 | 53.35311 | -2.27629 | 241 ft | 122 kts | 51° |
| 2026-05-06 08:00 | 53.35981 | -2.26331 | 572 ft | 161 kts | 49° |
| 2026-05-06 08:00 | 53.36761 | -2.24798 | 1114 ft | 185 kts | 51° |
| 2026-05-06 08:00 | 53.37528 | -2.22915 | 1706 ft | 210 kts | 69° |
| 2026-05-06 08:01 | 53.37509 | -2.20353 | 2303 ft | 238 kts | 111° |
| 2026-05-06 08:01 | 53.36437 | -2.18155 | 3264 ft | 252 kts | 139° |
| 2026-05-06 08:01 | 53.34904 | -2.16629 | 4258 ft | 266 kts | 162° |
| 2026-05-06 08:01 | 53.33026 | -2.16547 | 5203 ft | 276 kts | 189° |
| 2026-05-06 08:02 | 53.31107 | -2.17004 | 6266 ft | 281 kts | 189° |
| 2026-05-06 08:02 | 53.29152 | -2.17441 | 7258 ft | 286 kts | 189° |
| 2026-05-06 08:02 | 53.27168 | -2.17839 | 8264 ft | 289 kts | 188° |
| 2026-05-06 08:02 | 53.25151 | -2.18201 | 9261 ft | 294 kts | 187° |
| 2026-05-06 08:03 | 53.23101 | -2.18540 | 10233 ft | 298 kts | 187° |
| 2026-05-06 08:03 | 53.20949 | -2.18882 | 10633 ft | 323 kts | 187° |
| 2026-05-06 08:03 | 53.18633 | -2.19249 | 10958 ft | 347 kts | 187° |
| 2026-05-06 08:03 | 53.16171 | -2.19509 | 11550 ft | 360 kts | 180° |
| 2026-05-06 08:04 | 53.12226 | -2.18392 | 12847 ft | 370 kts | 162° |
| 2026-05-06 08:04 | 53.07408 | -2.15094 | 14484 ft | 377 kts | 158° |
| 2026-05-06 08:04 | 53.02522 | -2.11724 | 15994 ft | 384 kts | 159° |
| 2026-05-06 08:04 | 52.97528 | -2.08296 | 17479 ft | 391 kts | 159° |
| 2026-05-06 08:05 | 52.92537 | -2.04870 | 18815 ft | 399 kts | 159° |
| 2026-05-06 08:05 | 52.87327 | -2.01299 | 19089 ft | 416 kts | 159° |
| 2026-05-06 08:05 | 52.81940 | -1.97617 | 19075 ft | 427 kts | 159° |
| 2026-05-06 08:05 | 52.76449 | -1.93859 | 19075 ft | 427 kts | 159° |
| 2026-05-06 08:06 | 52.70940 | -1.90108 | 19081 ft | 427 kts | 159° |
| 2026-05-06 08:06 | 52.65431 | -1.86384 | 19066 ft | 427 kts | 159° |
| 2026-05-06 08:06 | 52.59916 | -1.82668 | 19059 ft | 428 kts | 159° |
| 2026-05-06 08:06 | 52.54416 | -1.78952 | 19055 ft | 428 kts | 159° |
| 2026-05-06 08:07 | 52.48910 | -1.75235 | 19045 ft | 428 kts | 159° |
| 2026-05-06 08:07 | 52.43497 | -1.71610 | 19059 ft | 428 kts | 159° |
| 2026-05-06 08:07 | 52.37980 | -1.67925 | 19057 ft | 428 kts | 159° |
| 2026-05-06 08:07 | 52.32422 | -1.64438 | 19063 ft | 427 kts | 163° |